Time;durP1;ratioP1;P1;durP2;ratioP2;P2;SDS_P1;SDS_P2;PMS_P1;PMS_P2;Temp;Humidity;BMP_temperature;BMP_pressure;BME280_temperature;BME280_humidity;BME280_pressure;Samples;Min_cycle;Max_cycle;Signal;HPM_P1;HPM_P2
2023/01/09 00:01:24;;;;;;;10.50;2.80;;;;;;;;;;104919;1257;61899;-45
2023/01/09 00:03:51;;;;;;;8.70;3.00;;;;;;;;;;105269;1257;59840;-46
2023/01/09 00:06:18;;;;;;;13.50;3.20;;;;;;;;;;105052;1257;59608;-45
2023/01/09 00:08:45;;;;;;;7.80;2.90;;;;;;;;;;104793;1260;61301;-45
2023/01/09 00:11:11;;;;;;;8.10;3.20;;;;;;;;;;104997;1254;59777;-45
2023/01/09 00:13:38;;;;;;;7.40;2.00;;;;;;;;;;104948;1257;61784;-45
2023/01/09 00:16:05;;;;;;;12.20;3.20;;;;;;;;;;105096;1262;59711;-45
2023/01/09 00:18:32;;;;;;;7.90;2.40;;;;;;;;;;105047;1260;59525;-46
2023/01/09 00:20:59;;;;;;;7.30;2.60;;;;;;;;;;104838;1259;62322;-46
2023/01/09 00:23:26;;;;;;;6.80;2.60;;;;;;;;;;105432;1257;59708;-44
2023/01/09 00:26:10;;;;;;;6.70;2.40;;;;;;;;;;104833;1257;60939;-46
2023/01/09 00:28:36;;;;;;;9.40;2.20;;;;;;;;;;104976;1257;59762;-44
2023/01/09 00:31:04;;;;;;;7.80;2.80;;;;;;;;;;105145;1257;59625;-43
2023/01/09 00:33:31;;;;;;;8.70;3.10;;;;;;;;;;106249;1259;61396;-45
2023/01/09 00:35:58;;;;;;;11.60;3.10;;;;;;;;;;104957;1256;59662;-45
2023/01/09 00:38:25;;;;;;;6.00;2.10;;;;;;;;;;105083;1254;61972;-45
2023/01/09 00:40:51;;;;;;;5.80;2.20;;;;;;;;;;105027;1257;59550;-44
2023/01/09 00:43:18;;;;;;;9.30;2.50;;;;;;;;;;104980;1257;59704;-44
2023/01/09 00:45:45;;;;;;;7.40;2.00;;;;;;;;;;104931;1256;62409;-44
2023/01/09 00:48:13;;;;;;;8.90;1.90;;;;;;;;;;104900;1261;59734;-44
2023/01/09 00:50:39;;;;;;;6.00;2.30;;;;;;;;;;105075;1261;60872;-47
2023/01/09 00:53:10;;;;;;;7.30;2.60;;;;;;;;;;105013;1257;59740;-45
2023/01/09 00:55:37;;;;;;;8.70;2.10;;;;;;;;;;105068;1256;60020;-45
2023/01/09 00:58:03;;;;;;;5.20;1.60;;;;;;;;;;104969;1261;61096;-46
2023/01/09 01:00:30;;;;;;;5.00;1.00;;;;;;;;;;104896;1257;59853;-45
2023/01/09 01:02:57;;;;;;;8.10;2.70;;;;;;;;;;104973;1261;60559;-45
2023/01/09 01:08:10;;;;;;;7.30;2.10;;;;;;;;;;104901;1262;59685;-46
2023/01/09 01:10:36;;;;;;;12.30;2.60;;;;;;;;;;104971;1262;62470;-45
2023/01/09 01:13:03;;;;;;;5.70;2.20;;;;;;;;;;104944;1256;59778;-46
2023/01/09 01:15:30;;;;;;;3.90;1.40;;;;;;;;;;104913;1258;60774;-46
2023/01/09 01:17:56;;;;;;;10.40;2.30;;;;;;;;;;104893;1262;59730;-46
2023/01/09 01:20:23;;;;;;;8.20;2.70;;;;;;;;;;104990;1258;59547;-47
2023/01/09 01:22:50;;;;;;;5.50;2.10;;;;;;;;;;105016;1257;61319;-46
2023/01/09 01:25:16;;;;;;;8.70;2.00;;;;;;;;;;104893;1261;59699;-46
2023/01/09 01:27:43;;;;;;;8.50;1.90;;;;;;;;;;104836;1257;61985;-46
2023/01/09 01:30:10;;;;;;;7.10;1.40;;;;;;;;;;104697;1257;59716;-46
2023/01/09 01:32:37;;;;;;;9.20;2.20;;;;;;;;;;104719;1256;59573;-46
2023/01/09 01:35:04;;;;;;;6.10;2.20;;;;;;;;;;104565;1258;61389;-46
2023/01/09 01:37:30;;;;;;;6.40;1.90;;;;;;;;;;104693;1256;59896;-46
2023/01/09 01:39:57;;;;;;;5.90;1.80;;;;;;;;;;104758;1257;60657;-46
2023/01/09 01:42:24;;;;;;;8.30;2.40;;;;;;;;;;104696;1257;59637;-46
2023/01/09 01:45:01;;;;;;;3.30;1.20;;;;;;;;;;104789;1257;59615;-46
2023/01/09 01:47:31;;;;;;;4.80;1.60;;;;;;;;;;104991;1258;61427;-45
2023/01/09 01:49:58;;;;;;;11.50;2.60;;;;;;;;;;104864;1262;59666;-45
2023/01/09 01:52:24;;;;;;;9.80;1.40;;;;;;;;;;105001;1257;60689;-46
2023/01/09 01:54:51;;;;;;;5.90;1.60;;;;;;;;;;105198;1257;59615;-43
2023/01/09 01:57:18;;;;;;;5.50;1.00;;;;;;;;;;105028;1258;59753;-44
2023/01/09 01:59:49;;;;;;;6.50;1.60;;;;;;;;;;105094;1255;62495;-46
2023/01/09 02:02:17;;;;;;;6.10;1.60;;;;;;;;;;104935;1262;59724;-44
2023/01/09 02:04:44;;;;;;;4.00;1.40;;;;;;;;;;108948;1256;61491;-47
2023/01/09 02:07:10;;;;;;;2.60;1.20;;;;;;;;;;108825;1262;57594;-47
2023/01/09 02:09:37;;;;;;;7.40;1.10;;;;;;;;;;108551;1256;57807;-46
2023/01/09 02:12:17;;;;;;;4.30;1.20;;;;;;;;;;104878;1257;61142;-46
2023/01/09 02:14:45;;;;;;;6.20;1.30;;;;;;;;;;105057;1261;59615;-46
2023/01/09 02:17:14;;;;;;;4.80;1.30;;;;;;;;;;105185;1259;60461;-47
2023/01/09 02:20:00;;;;;;;5.00;1.10;;;;;;;;;;104811;1257;59722;-46
2023/01/09 02:22:39;;;;;;;4.20;1.10;;;;;;;;;;104812;1257;59513;-46
2023/01/09 02:25:09;;;;;;;2.50;0.80;;;;;;;;;;104927;1262;62628;-47
2023/01/09 02:27:48;;;;;;;5.40;1.30;;;;;;;;;;104831;1263;59800;-46
2023/01/09 02:30:17;;;;;;;4.80;1.20;;;;;;;;;;104842;1261;62009;-46
2023/01/09 02:33:03;;;;;;;5.20;1.30;;;;;;;;;;104748;1255;59715;-47
2023/01/09 02:35:33;;;;;;;8.40;1.70;;;;;;;;;;104847;1260;59647;-47
2023/01/09 02:38:14;;;;;;;5.20;1.40;;;;;;;;;;104848;1260;63024;-46
2023/01/09 02:40:50;;;;;;;3.60;1.40;;;;;;;;;;104623;1256;59740;-45
2023/01/09 02:43:17;;;;;;;3.80;1.10;;;;;;;;;;104787;1257;60627;-46
2023/01/09 02:45:43;;;;;;;2.90;1.30;;;;;;;;;;104938;1260;60852;-46
2023/01/09 02:48:10;;;;;;;4.90;1.10;;;;;;;;;;104921;1256;60411;-47
2023/01/09 02:50:42;;;;;;;5.20;1.10;;;;;;;;;;104896;1256;63115;-47
2023/01/09 02:53:11;;;;;;;2.10;0.90;;;;;;;;;;104954;1260;60456;-46
2023/01/09 02:55:38;;;;;;;5.10;1.20;;;;;;;;;;104971;1262;63081;-46
2023/01/09 02:58:20;;;;;;;4.80;1.20;;;;;;;;;;104947;1257;60366;-47
2023/01/09 03:00:56;;;;;;;2.40;1.20;;;;;;;;;;104639;1256;60329;-46
2023/01/09 03:03:43;;;;;;;3.00;0.90;;;;;;;;;;104828;1261;63224;-45
2023/01/09 03:06:13;;;;;;;5.40;1.10;;;;;;;;;;104701;1257;60505;-44
2023/01/09 03:08:41;;;;;;;2.70;1.00;;;;;;;;;;104771;1257;61891;-45
2023/01/09 03:11:08;;;;;;;4.80;1.60;;;;;;;;;;104706;1257;60517;-46
2023/01/09 03:13:36;;;;;;;3.20;0.90;;;;;;;;;;104773;1262;60419;-45
2023/01/09 03:16:04;;;;;;;4.60;1.20;;;;;;;;;;105290;1257;63260;-46
2023/01/09 03:18:31;;;;;;;2.70;0.90;;;;;;;;;;105816;1260;60446;-46
2023/01/09 03:20:57;;;;;;;3.70;1.10;;;;;;;;;;104990;1258;60647;-44
2023/01/09 03:23:24;;;;;;;2.00;0.70;;;;;;;;;;105080;1263;60472;-46
2023/01/09 03:25:51;;;;;;;2.50;0.90;;;;;;;;;;105022;1258;62172;-46
2023/01/09 03:28:24;;;;;;;4.10;1.00;;;;;;;;;;105047;1256;61972;-44
2023/01/09 03:30:50;;;;;;;2.50;1.00;;;;;;;;;;104891;1258;60549;-42
2023/01/09 03:33:17;;;;;;;2.30;0.90;;;;;;;;;;105080;1257;60809;-45
2023/01/09 03:35:43;;;;;;;3.30;1.00;;;;;;;;;;105127;1260;61054;-46
2023/01/09 03:38:10;;;;;;;5.30;1.40;;;;;;;;;;104988;1260;60527;-46
2023/01/09 03:40:37;;;;;;;3.20;0.80;;;;;;;;;;104894;1261;63276;-44
2023/01/09 03:43:03;;;;;;;2.90;0.90;;;;;;;;;;104952;1262;60482;-45
2023/01/09 03:45:30;;;;;;;4.70;1.20;;;;;;;;;;104827;1257;60516;-45
2023/01/09 03:47:58;;;;;;;2.60;0.80;;;;;;;;;;104938;1260;60518;-43
2023/01/09 03:50:25;;;;;;;1.30;0.80;;;;;;;;;;104936;1258;60445;-44
2023/01/09 03:52:51;;;;;;;3.60;1.00;;;;;;;;;;104964;1257;62167;-45
2023/01/09 03:55:18;;;;;;;4.40;0.90;;;;;;;;;;104899;1257;60767;-43
2023/01/09 03:57:44;;;;;;;2.20;1.10;;;;;;;;;;104906;1257;60830;-43
2023/01/09 04:00:11;;;;;;;2.30;1.00;;;;;;;;;;104754;1256;60501;-44
2023/01/09 04:02:38;;;;;;;5.30;1.10;;;;;;;;;;104895;1262;60415;-43
2023/01/09 04:05:05;;;;;;;4.50;1.00;;;;;;;;;;104960;1258;63140;-43
2023/01/09 04:07:32;;;;;;;3.20;1.00;;;;;;;;;;104937;1260;61479;-44
2023/01/09 04:09:58;;;;;;;3.90;0.90;;;;;;;;;;105181;1257;61858;-47
2023/01/09 04:12:25;;;;;;;2.80;1.30;;;;;;;;;;105188;1251;60537;-45
2023/01/09 04:14:52;;;;;;;1.70;0.70;;;;;;;;;;105196;1251;60527;-46
2023/01/09 04:17:18;;;;;;;3.60;1.10;;;;;;;;;;105163;1259;62227;-43
2023/01/09 04:19:45;;;;;;;4.20;1.00;;;;;;;;;;105151;1256;60492;-45
2023/01/09 04:22:11;;;;;;;2.90;1.10;;;;;;;;;;105155;1257;60827;-45
2023/01/09 04:24:38;;;;;;;2.80;1.10;;;;;;;;;;105193;1260;60511;-44
2023/01/09 04:27:05;;;;;;;4.60;0.90;;;;;;;;;;105112;1257;60351;-44
2023/01/09 04:29:31;;;;;;;3.10;1.40;;;;;;;;;;105284;1251;63443;-43
2023/01/09 04:31:58;;;;;;;2.90;1.30;;;;;;;;;;105065;1254;60398;-44
2023/01/09 04:34:24;;;;;;;4.10;1.30;;;;;;;;;;105042;1258;61716;-45
2023/01/09 04:36:52;;;;;;;5.60;1.00;;;;;;;;;;105230;1256;60530;-45
2023/01/09 04:39:19;;;;;;;4.00;1.20;;;;;;;;;;105095;1257;60495;-44
2023/01/09 04:41:48;;;;;;;5.70;1.80;;;;;;;;;;105188;1251;63201;-45
2023/01/09 04:44:16;;;;;;;2.90;1.20;;;;;;;;;;105257;1257;60555;-46
2023/01/09 04:46:42;;;;;;;2.60;1.10;;;;;;;;;;109248;1254;60530;-47
2023/01/09 04:49:09;;;;;;;3.20;1.00;;;;;;;;;;109285;1254;58606;-44
2023/01/09 04:51:36;;;;;;;4.20;0.90;;;;;;;;;;109345;1251;58408;-44
2023/01/09 04:54:02;;;;;;;3.70;1.10;;;;;;;;;;109348;1251;62236;-47
2023/01/09 04:56:29;;;;;;;2.50;1.00;;;;;;;;;;109259;1251;58103;-48
2023/01/09 04:58:56;;;;;;;3.70;1.00;;;;;;;;;;109351;1252;62114;-44
2023/01/09 05:01:22;;;;;;;4.10;1.30;;;;;;;;;;109323;1254;58184;-45
2023/01/09 05:03:49;;;;;;;3.60;1.20;;;;;;;;;;109374;1251;58508;-45
2023/01/09 05:06:16;;;;;;;4.30;1.20;;;;;;;;;;109270;1256;63201;-45
2023/01/09 05:08:42;;;;;;;4.70;1.40;;;;;;;;;;109352;1251;58710;-45
2023/01/09 05:11:09;;;;;;;3.10;1.20;;;;;;;;;;109379;1251;61851;-45
2023/01/09 05:13:35;;;;;;;2.90;1.30;;;;;;;;;;107448;1257;60427;-46
2023/01/09 05:16:02;;;;;;;5.90;1.70;;;;;;;;;;105093;1251;60688;-45
2023/01/09 05:18:29;;;;;;;4.20;1.30;;;;;;;;;;105248;1257;62225;-46
2023/01/09 05:20:55;;;;;;;3.00;1.10;;;;;;;;;;105110;1257;60503;-45
2023/01/09 05:23:22;;;;;;;5.40;1.50;;;;;;;;;;105252;1254;60907;-46
2023/01/09 05:25:49;;;;;;;4.60;1.10;;;;;;;;;;104996;1255;60456;-46
2023/01/09 05:28:15;;;;;;;3.00;1.00;;;;;;;;;;105108;1252;60539;-45
2023/01/09 05:30:42;;;;;;;4.60;1.20;;;;;;;;;;105196;1256;63349;-45
2023/01/09 05:33:08;;;;;;;2.40;1.00;;;;;;;;;;105212;1260;60506;-45
2023/01/09 05:35:35;;;;;;;2.70;0.90;;;;;;;;;;104990;1260;61918;-46
2023/01/09 05:38:02;;;;;;;5.50;1.90;;;;;;;;;;104871;1254;60610;-45
2023/01/09 05:40:28;;;;;;;5.10;1.10;;;;;;;;;;105022;1259;60511;-45
2023/01/09 05:43:05;;;;;;;3.60;1.30;;;;;;;;;;105011;1259;63040;-46
2023/01/09 05:45:32;;;;;;;4.50;1.10;;;;;;;;;;105060;1260;60683;-46
2023/01/09 05:47:58;;;;;;;4.60;1.40;;;;;;;;;;105009;1254;61730;-45
2023/01/09 05:50:25;;;;;;;3.20;1.70;;;;;;;;;;104884;1257;60651;-46
2023/01/09 05:52:52;;;;;;;5.60;1.50;;;;;;;;;;105048;1257;60569;-45
2023/01/09 05:55:18;;;;;;;2.70;1.10;;;;;;;;;;104887;1253;62154;-46
2023/01/09 05:57:45;;;;;;;5.40;1.70;;;;;;;;;;104932;1254;60636;-45
2023/01/09 06:00:12;;;;;;;3.80;2.10;;;;;;;;;;104785;1255;61845;-46
2023/01/09 06:02:38;;;;;;;5.30;1.30;;;;;;;;;;104735;1260;60427;-46
2023/01/09 06:05:06;;;;;;;8.90;1.50;;;;;;;;;;104719;1258;60482;-47
2023/01/09 06:07:35;;;;;;;8.10;1.70;;;;;;;;;;105075;1254;62201;-46
2023/01/09 06:10:02;;;;;;;3.80;1.70;;;;;;;;;;105372;1260;60472;-45
2023/01/09 06:12:29;;;;;;;3.60;1.00;;;;;;;;;;105099;1260;61873;-47
2023/01/09 06:14:55;;;;;;;6.20;1.20;;;;;;;;;;104985;1260;60640;-46
2023/01/09 06:17:22;;;;;;;5.00;1.50;;;;;;;;;;105238;1259;60379;-46
2023/01/09 06:19:50;;;;;;;3.70;1.30;;;;;;;;;;105026;1260;61975;-44
2023/01/09 06:22:16;;;;;;;4.50;1.20;;;;;;;;;;105117;1254;60352;-45
2023/01/09 06:24:43;;;;;;;4.90;1.20;;;;;;;;;;105226;1260;62025;-45
2023/01/09 06:27:11;;;;;;;3.70;1.50;;;;;;;;;;104844;1260;60563;-45
2023/01/09 06:29:38;;;;;;;4.20;1.30;;;;;;;;;;105039;1260;60514;-45
2023/01/09 06:32:05;;;;;;;7.50;1.10;;;;;;;;;;104983;1254;63118;-45
2023/01/09 06:34:32;;;;;;;9.00;1.60;;;;;;;;;;105009;1259;60521;-45
2023/01/09 06:36:58;;;;;;;3.20;1.00;;;;;;;;;;105023;1258;61910;-46
2023/01/09 06:39:25;;;;;;;4.80;1.30;;;;;;;;;;104975;1254;60629;-44
2023/01/09 06:41:52;;;;;;;5.00;1.10;;;;;;;;;;105166;1257;60677;-43
2023/01/09 06:44:18;;;;;;;8.90;1.20;;;;;;;;;;104964;1259;63205;-44
2023/01/09 06:46:45;;;;;;;3.80;1.30;;;;;;;;;;105127;1259;60932;-45
2023/01/09 06:49:12;;;;;;;3.00;1.10;;;;;;;;;;104980;1259;60952;-46
2023/01/09 06:51:38;;;;;;;2.70;1.20;;;;;;;;;;105034;1254;60411;-46
2023/01/09 06:54:05;;;;;;;6.10;1.30;;;;;;;;;;105060;1259;60434;-45
2023/01/09 06:56:32;;;;;;;3.00;1.50;;;;;;;;;;105032;1260;64944;-44
2023/01/09 06:59:00;;;;;;;2.20;1.00;;;;;;;;;;105005;1257;60447;-45
2023/01/09 07:01:26;;;;;;;3.20;1.20;;;;;;;;;;104940;1260;61929;-47
2023/01/09 07:03:53;;;;;;;5.00;1.10;;;;;;;;;;104977;1257;60536;-47
2023/01/09 07:06:19;;;;;;;3.30;1.10;;;;;;;;;;105012;1259;60546;-45
2023/01/09 07:08:46;;;;;;;4.00;1.20;;;;;;;;;;104676;1260;62137;-46
2023/01/09 07:11:13;;;;;;;3.00;1.10;;;;;;;;;;104944;1263;60354;-45
2023/01/09 07:13:40;;;;;;;2.80;1.50;;;;;;;;;;105025;1254;62552;-45
2023/01/09 07:16:06;;;;;;;7.70;1.10;;;;;;;;;;104954;1262;60481;-46
2023/01/09 07:18:33;;;;;;;3.30;1.10;;;;;;;;;;105381;1256;60453;-44
2023/01/09 07:21:00;;;;;;;3.80;1.10;;;;;;;;;;104897;1259;64718;-45
2023/01/09 07:23:26;;;;;;;4.00;1.00;;;;;;;;;;104983;1253;60414;-44
2023/01/09 07:25:53;;;;;;;2.40;1.00;;;;;;;;;;105050;1257;60737;-46
2023/01/09 07:28:20;;;;;;;4.80;1.10;;;;;;;;;;104911;1254;60539;-43
2023/01/09 07:30:46;;;;;;;3.10;1.00;;;;;;;;;;104895;1257;60424;-46
2023/01/09 07:33:13;;;;;;;4.60;1.20;;;;;;;;;;105050;1254;63387;-46
2023/01/09 07:35:40;;;;;;;6.20;1.20;;;;;;;;;;104849;1259;60551;-47
2023/01/09 07:38:06;;;;;;;4.60;1.00;;;;;;;;;;104910;1263;61899;-43
2023/01/09 07:40:33;;;;;;;5.00;1.00;;;;;;;;;;105016;1254;60425;-45
2023/01/09 07:43:00;;;;;;;3.70;1.20;;;;;;;;;;104779;1254;60565;-43
2023/01/09 07:45:26;;;;;;;5.00;1.00;;;;;;;;;;104849;1257;63084;-45
2023/01/09 07:47:53;;;;;;;3.00;1.10;;;;;;;;;;104873;1257;60633;-44
2023/01/09 07:50:19;;;;;;;6.10;1.70;;;;;;;;;;104883;1259;61506;-42
2023/01/09 07:52:46;;;;;;;7.10;2.40;;;;;;;;;;104922;1254;60743;-41
2023/01/09 07:55:13;;;;;;;6.70;1.70;;;;;;;;;;104985;1254;60427;-44
2023/01/09 07:57:42;;;;;;;6.60;1.50;;;;;;;;;;105177;1255;63363;-44
2023/01/09 08:00:09;;;;;;;5.20;2.10;;;;;;;;;;105150;1254;60502;-45
2023/01/09 08:02:39;;;;;;;7.70;2.10;;;;;;;;;;105141;1258;61887;-41
2023/01/09 08:05:07;;;;;;;4.00;0.90;;;;;;;;;;105025;1259;60386;-44
2023/01/09 08:07:34;;;;;;;9.40;2.60;;;;;;;;;;109259;1254;58329;-44
2023/01/09 08:10:01;;;;;;;7.70;1.60;;;;;;;;;;109237;1254;63092;-45
2023/01/09 08:12:27;;;;;;;6.50;1.30;;;;;;;;;;109205;1254;58074;-45
2023/01/09 08:14:54;;;;;;;5.60;1.90;;;;;;;;;;109203;1253;60818;-45
2023/01/09 08:17:20;;;;;;;6.20;1.50;;;;;;;;;;109178;1252;58481;-44
2023/01/09 08:19:47;;;;;;;2.30;1.10;;;;;;;;;;107380;1253;60593;-45
2023/01/09 08:22:14;;;;;;;3.90;1.30;;;;;;;;;;105031;1254;62277;-44
2023/01/09 08:24:40;;;;;;;3.80;1.10;;;;;;;;;;105117;1257;60457;-46
2023/01/09 08:27:07;;;;;;;4.10;1.20;;;;;;;;;;104878;1257;62048;-43
2023/01/09 08:29:33;;;;;;;4.90;1.10;;;;;;;;;;104776;1254;60513;-45
2023/01/09 08:32:00;;;;;;;4.70;1.10;;;;;;;;;;104991;1252;61914;-44
2023/01/09 08:34:27;;;;;;;3.70;1.30;;;;;;;;;;104962;1251;63073;-44
2023/01/09 08:36:53;;;;;;;3.50;1.20;;;;;;;;;;104753;1254;60406;-45
2023/01/09 08:39:20;;;;;;;5.30;1.60;;;;;;;;;;105013;1254;61722;-44
2023/01/09 08:47:19;;;;;;;6.60;1.60;;;;;;;;;;105001;1253;62259;-42
2023/01/09 08:49:46;;;;;;;3.20;1.10;;;;;;;;;;105152;1254;60482;-44
2023/01/09 08:52:12;;;;;;;2.60;1.60;;;;;;;;;;104885;1257;60777;-45
2023/01/09 08:54:39;;;;;;;2.20;1.10;;;;;;;;;;104964;1254;60434;-44
2023/01/09 08:57:06;;;;;;;3.60;0.90;;;;;;;;;;104916;1257;60460;-43
2023/01/09 08:59:33;;;;;;;4.90;1.30;;;;;;;;;;105163;1256;62975;-41
2023/01/09 09:01:59;;;;;;;3.60;1.30;;;;;;;;;;105033;1254;60424;-43
2023/01/09 09:04:26;;;;;;;3.40;0.90;;;;;;;;;;104758;1254;62175;-45
2023/01/09 09:06:53;;;;;;;2.10;1.00;;;;;;;;;;105006;1251;60514;-46
2023/01/09 09:09:19;;;;;;;6.00;1.10;;;;;;;;;;104857;1257;60428;-45
2023/01/09 09:11:46;;;;;;;4.60;1.30;;;;;;;;;;105017;1256;63432;-46
2023/01/09 09:16:58;;;;;;;2.40;1.10;;;;;;;;;;104790;1258;60660;-45
2023/01/09 09:19:25;;;;;;;4.30;0.90;;;;;;;;;;105172;1254;60408;-43
2023/01/09 09:21:51;;;;;;;4.50;1.10;;;;;;;;;;105279;1257;60891;-46
2023/01/09 09:24:18;;;;;;;3.50;0.90;;;;;;;;;;105248;1255;63174;-45
2023/01/09 09:26:45;;;;;;;2.90;1.10;;;;;;;;;;105261;1256;60599;-44
2023/01/09 09:29:11;;;;;;;4.50;1.10;;;;;;;;;;105142;1257;60682;-44
2023/01/09 09:31:38;;;;;;;3.60;1.80;;;;;;;;;;104923;1254;60431;-46
2023/01/09 09:34:05;;;;;;;1.80;1.00;;;;;;;;;;106551;1253;60302;-44
2023/01/09 09:36:32;;;;;;;2.30;1.10;;;;;;;;;;105277;1251;62632;-45
2023/01/09 09:38:59;;;;;;;2.70;1.00;;;;;;;;;;105282;1251;60376;-46
2023/01/09 09:47:24;;;;;;;3.80;1.00;;;;;;;;;;105844;1251;60521;-45
2023/01/09 09:50:05;;;;;;;2.50;0.80;;;;;;;;;;105284;1251;62145;-45
2023/01/09 09:52:37;;;;;;;2.90;1.50;;;;;;;;;;105222;1253;60574;-45
2023/01/09 09:55:05;;;;;;;3.60;0.80;;;;;;;;;;105243;1251;61797;-45
2023/01/09 09:57:33;;;;;;;4.10;1.10;;;;;;;;;;105108;1254;60533;-46
2023/01/09 10:00:00;;;;;;;3.00;1.00;;;;;;;;;;105294;1251;60499;-44
2023/01/09 10:05:04;;;;;;;1.70;0.80;;;;;;;;;;101637;1293;601392;-43
2023/01/09 10:07:32;;;;;;;3.40;0.90;;;;;;;;;;103905;1267;59602;-45
2023/01/09 10:09:59;;;;;;;2.00;1.30;;;;;;;;;;104230;1272;59055;-43
2023/01/09 10:12:30;;;;;;;4.30;1.00;;;;;;;;;;104353;1266;60361;-45
2023/01/09 10:14:57;;;;;;;2.00;0.90;;;;;;;;;;104578;1267;59188;-45
2023/01/09 10:17:30;;;;;;;2.90;1.00;;;;;;;;;;103889;1268;60224;-46
2023/01/09 10:20:27;;;;;;;3.00;0.80;;;;;;;;;;104006;1265;59156;-46
2023/01/09 10:23:00;;;;;;;3.00;1.00;;;;;;;;;;104349;1264;59135;-47
2023/01/09 10:25:31;;;;;;;3.40;0.70;;;;;;;;;;104470;1269;62974;-46
2023/01/09 10:28:01;;;;;;;1.90;0.80;;;;;;;;;;103985;1270;59009;-46
2023/01/09 10:30:30;;;;;;;1.40;0.80;;;;;;;;;;104111;1264;60700;-45
2023/01/09 10:33:00;;;;;;;2.70;1.10;;;;;;;;;;104299;1263;59718;-45
2023/01/09 10:35:33;;;;;;;1.90;0.80;;;;;;;;;;104701;1263;59634;-46
2023/01/09 10:38:14;;;;;;;1.80;0.70;;;;;;;;;;104858;1264;61049;-46
2023/01/09 10:40:41;;;;;;;2.30;0.90;;;;;;;;;;104324;1269;59549;-46
2023/01/09 10:43:10;;;;;;;1.70;0.60;;;;;;;;;;103974;1266;60330;-44
2023/01/09 10:45:46;;;;;;;1.30;0.70;;;;;;;;;;103779;1264;59634;-46
2023/01/09 10:48:27;;;;;;;1.40;0.70;;;;;;;;;;104029;1268;59587;-46
2023/01/09 10:50:54;;;;;;;2.60;0.70;;;;;;;;;;104265;1269;63688;-47
2023/01/09 10:53:22;;;;;;;1.30;0.70;;;;;;;;;;103956;1265;59677;-47
2023/01/09 10:55:50;;;;;;;1.30;0.70;;;;;;;;;;104143;1263;62033;-47
2023/01/09 10:58:18;;;;;;;4.60;1.10;;;;;;;;;;104173;1263;60386;-45
2023/01/09 11:00:45;;;;;;;1.10;0.60;;;;;;;;;;105960;1263;60972;-45
2023/01/09 11:03:12;;;;;;;3.30;0.80;;;;;;;;;;104752;1263;61150;-45
2023/01/09 11:05:39;;;;;;;2.70;0.70;;;;;;;;;;104299;1264;59703;-46
2023/01/09 11:08:12;;;;;;;1.40;0.60;;;;;;;;;;104374;1267;61898;-46
2023/01/09 11:10:46;;;;;;;3.30;0.80;;;;;;;;;;104293;1267;59701;-45
2023/01/09 11:13:20;;;;;;;2.10;0.70;;;;;;;;;;103990;1263;59686;-46
2023/01/09 11:15:57;;;;;;;2.50;0.70;;;;;;;;;;104064;1263;62592;-45
2023/01/09 11:18:24;;;;;;;1.90;0.90;;;;;;;;;;104127;1269;59683;-46
2023/01/09 11:20:51;;;;;;;1.60;0.70;;;;;;;;;;104008;1264;62530;-45
2023/01/09 11:23:28;;;;;;;2.50;0.80;;;;;;;;;;104041;1266;59627;-46
2023/01/09 11:25:56;;;;;;;1.20;0.80;;;;;;;;;;104096;1264;59631;-44
2023/01/09 11:28:22;;;;;;;3.20;0.70;;;;;;;;;;104169;1263;61231;-46
2023/01/09 11:30:50;;;;;;;2.20;0.80;;;;;;;;;;104186;1264;60069;-44
2023/01/09 11:33:18;;;;;;;5.40;1.50;;;;;;;;;;103972;1266;60742;-44
2023/01/09 11:35:49;;;;;;;3.10;0.90;;;;;;;;;;104043;1267;59667;-46
2023/01/09 11:38:16;;;;;;;2.70;0.90;;;;;;;;;;104317;1263;59593;-47
2023/01/09 11:40:48;;;;;;;1.30;0.70;;;;;;;;;;104019;1263;62483;-45
2023/01/09 11:43:16;;;;;;;2.50;1.10;;;;;;;;;;108422;1263;59091;-47
2023/01/09 11:45:44;;;;;;;2.00;1.20;;;;;;;;;;108432;1263;61907;-47
2023/01/09 11:48:27;;;;;;;3.80;0.70;;;;;;;;;;108347;1263;58538;-46
2023/01/09 11:50:55;;;;;;;2.30;0.80;;;;;;;;;;108269;1263;57655;-47
2023/01/09 11:53:22;;;;;;;1.60;0.80;;;;;;;;;;108321;1263;62416;-44
2023/01/09 11:56:07;;;;;;;2.20;0.70;;;;;;;;;;108293;1264;59219;-45
2023/01/09 11:58:34;;;;;;;2.30;1.00;;;;;;;;;;108172;1263;61997;-45
2023/01/09 12:01:03;;;;;;;2.00;0.70;;;;;;;;;;108285;1263;57674;-45
2023/01/09 12:03:30;;;;;;;2.10;0.60;;;;;;;;;;108734;1255;57454;-45
2023/01/09 12:06:02;;;;;;;4.50;0.80;;;;;;;;;;108794;1255;62939;-45
2023/01/09 12:08:29;;;;;;;2.00;0.80;;;;;;;;;;108799;1256;58544;-45
2023/01/09 12:11:14;;;;;;;5.20;2.50;;;;;;;;;;108828;1256;60550;-44
2023/01/09 12:13:50;;;;;;;9.40;3.90;;;;;;;;;;108682;1257;58255;-46
2023/01/09 12:16:35;;;;;;;52.40;24.20;;;;;;;;;;108708;1256;57895;-44
2023/01/09 12:19:08;;;;;;;64.30;25.60;;;;;;;;;;108789;1256;62342;-43
2023/01/09 12:21:35;;;;;;;99.30;46.00;;;;;;;;;;108205;1257;59782;-46
2023/01/09 12:24:02;;;;;;;36.00;16.90;;;;;;;;;;104360;1256;61649;-47
2023/01/09 12:26:35;;;;;;;43.50;22.60;;;;;;;;;;106789;1259;59656;-45
2023/01/09 12:29:23;;;;;;;8.80;3.30;;;;;;;;;;105326;1257;61243;-46
2023/01/09 12:31:57;;;;;;;13.40;7.40;;;;;;;;;;108417;1257;62464;-48
2023/01/09 12:34:36;;;;;;;11.60;6.50;;;;;;;;;;108604;1255;58383;-47
2023/01/09 12:37:16;;;;;;;6.70;3.60;;;;;;;;;;105188;1258;63213;-48
2023/01/09 12:39:52;;;;;;;9.40;4.90;;;;;;;;;;104403;1256;61127;-47
2023/01/09 12:42:41;;;;;;;8.40;4.10;;;;;;;;;;104526;1257;59710;-47
2023/01/09 12:45:21;;;;;;;26.80;12.70;;;;;;;;;;104370;1257;62708;-46
2023/01/09 12:47:48;;;;;;;10.60;4.10;;;;;;;;;;104814;1262;59542;-47
2023/01/09 12:50:22;;;;;;;13.30;6.10;;;;;;;;;;104382;1258;60667;-46
2023/01/09 12:52:49;;;;;;;;;;;;;;;;;;104641;1257;59693;-46
2023/01/09 12:55:19;;;;;;;16.00;8.30;;;;;;;;;;104383;1257;61287;-47
2023/01/09 12:57:47;;;;;;;63.30;26.50;;;;;;;;;;104376;1261;61540;-46
2023/01/09 13:00:34;;;;;;;165.00;68.00;;;;;;;;;;104277;1256;60252;-47
2023/01/09 13:03:04;;;;;;;25.70;9.60;;;;;;;;;;104307;1257;61578;-47
2023/01/09 13:05:41;;;;;;;13.90;6.30;;;;;;;;;;108756;1259;57879;-49
2023/01/09 13:08:13;;;;;;;9.40;5.20;;;;;;;;;;108745;1256;59005;-48
2023/01/09 13:10:47;;;;;;;3.30;1.90;;;;;;;;;;104423;1261;62465;-49
2023/01/09 13:13:19;;;;;;;2.80;0.90;;;;;;;;;;105336;1258;59721;-46
2023/01/09 13:15:50;;;;;;;8.20;4.80;;;;;;;;;;104756;1257;60659;-46
2023/01/09 13:18:16;;;;;;;4.50;2.20;;;;;;;;;;104737;1262;59504;-46
2023/01/09 13:20:44;;;;;;;7.00;1.90;;;;;;;;;;104969;1256;59631;-44
2023/01/09 13:23:20;;;;;;;5.30;2.30;;;;;;;;;;105495;1257;61361;-45
2023/01/09 13:25:50;;;;;;;4.40;1.70;;;;;;;;;;105306;1262;59557;-44
2023/01/09 13:28:17;;;;;;;4.80;1.60;;;;;;;;;;105017;1256;62268;-45
2023/01/09 13:31:03;;;;;;;3.60;1.80;;;;;;;;;;104917;1259;59741;-44
2023/01/09 13:33:30;;;;;;;2.20;1.10;;;;;;;;;;105015;1262;59997;-43
2023/01/09 13:35:56;;;;;;;5.00;3.00;;;;;;;;;;104894;1257;62410;-46
2023/01/09 13:38:24;;;;;;;9.40;2.80;;;;;;;;;;105256;1257;59798;-45
2023/01/09 13:42:34;;;;;;;13.30;6.30;;;;;;;;;;104945;1261;60628;-43
2023/01/09 13:43:57;;;;;;;3.40;1.50;;;;;;;;;;104807;1257;59782;-46
2023/01/09 13:46:34;;;;;;;4.60;1.90;;;;;;;;;;105040;1262;59599;-46
2023/01/09 13:49:02;;;;;;;20.80;8.00;;;;;;;;;;105268;1257;62563;-45
2023/01/09 13:51:36;;;;;;;40.60;20.30;;;;;;;;;;104935;1257;59718;-45
2023/01/09 13:54:02;;;;;;;43.10;22.90;;;;;;;;;;104921;1262;61882;-44
2023/01/09 13:56:29;;;;;;;14.30;5.50;;;;;;;;;;104788;1257;59695;-45
2023/01/09 13:58:57;;;;;;;17.70;8.60;;;;;;;;;;104887;1257;59647;-44
2023/01/09 14:01:23;;;;;;;6.90;2.60;;;;;;;;;;104902;1262;62438;-45
2023/01/09 14:04:23;;;;;;;5.10;1.70;;;;;;;;;;105483;1257;59810;-42
2023/01/09 14:07:10;;;;;;;21.80;11.20;;;;;;;;;;105528;1260;60900;-44
2023/01/09 14:09:36;;;;;;;40.30;18.00;;;;;;;;;;105082;1257;59663;-44
2023/01/09 14:12:03;;;;;;;7.20;3.30;;;;;;;;;;104940;1262;60071;-44
2023/01/09 14:14:32;;;;;;;13.20;6.80;;;;;;;;;;104981;1262;63060;-46
2023/01/09 14:17:57;;;;;;;6.20;2.70;;;;;;;;;;101679;1292;603034;-45
2023/01/09 14:20:25;;;;;;;16.30;9.00;;;;;;;;;;104208;1270;59135;-44
2023/01/09 14:22:56;;;;;;;3.70;1.30;;;;;;;;;;108454;1263;57056;-45
2023/01/09 14:25:43;;;;;;;4.80;2.20;;;;;;;;;;108367;1264;61359;-45
2023/01/09 14:28:22;;;;;;;4.40;1.90;;;;;;;;;;108429;1267;56973;-45
2023/01/09 14:30:52;;;;;;;3.40;0.90;;;;;;;;;;108370;1264;76095;-46
2023/01/09 14:33:19;;;;;;;7.90;2.00;;;;;;;;;;108580;1264;57816;-45
2023/01/09 14:36:04;;;;;;;6.30;1.80;;;;;;;;;;105201;1267;59203;-45
2023/01/09 14:38:31;;;;;;;3.40;1.20;;;;;;;;;;104640;1265;61706;-46
2023/01/09 14:41:09;;;;;;;12.70;3.50;;;;;;;;;;104550;1263;58980;-47
2023/01/09 14:43:45;;;;;;;6.40;2.10;;;;;;;;;;104513;1264;60630;-45
2023/01/09 14:46:13;;;;;;;8.30;2.60;;;;;;;;;;104603;1264;59691;-46
2023/01/09 14:48:47;;;;;;;3.80;1.30;;;;;;;;;;109416;1251;57415;-46
2023/01/09 14:51:15;;;;;;;9.50;3.70;;;;;;;;;;109114;1251;62719;-45
2023/01/09 14:53:41;;;;;;;3.60;1.40;;;;;;;;;;106647;1251;59485;-48
2023/01/09 14:56:21;;;;;;;5.30;2.10;;;;;;;;;;105236;1253;60619;-44
2023/01/09 14:58:51;;;;;;;15.10;8.00;;;;;;;;;;105193;1251;60008;-47
2023/01/09 15:01:21;;;;;;;14.50;7.80;;;;;;;;;;105302;1251;59822;-46